KMCWKBDU

Guest
Details From KMCW - Mason City Muni
To KBDU - Boulder Muni
Flight Number -
Tags Standard
Created
Modified
Stats Distance 565 nm / 1,047 km
Max Altitude 0 ft / 0 m
Waypoints 4
Social Downloads 1
Likes 0
Share VATSIM

Download

Looking for another format? Having issues loading an existing format? Contact us
Advertisement - Login to hide

Notes

None

Route

KMCW BOKKI MELVN KBDU

ID Type Via Altitude Latitude Longitude Leg Dist Tot Dist Heading (true) Name
O KMCW APT - 0 ft / 0 m 43.15984˚ -93.34391˚ - 0 nm - -
BOKKI FIX - 0 ft / 0 m 41.66528˚ -99.87139˚ 302 nm 302 nm 255° / 251° -
MELVN FIX - 0 ft / 0 m 40.10678˚ -105.04664˚ 252 nm 555 nm 250° / 247° -
O KBDU APT - 0 ft / 0 m 40.03833˚ -105.23473˚ 9 nm 565 nm 245° / 245° BOULDER MUNI

Altitude Profile

Advertisement - Login to hide

Weather


0- 5 10 15 20 25 30 35+ Temperature / ° C

Clouds and Precipitation
Forecast for 2017-12-13 12:00 UTC. Updated 2 hours ago

Ground ~20,000 ft ~40,000 ft Winds

KMCW

Details ICAO KMCW (MCW)
Name MASON CITY MUNI
Region United States
Timezone America/Chicago (UTC-6.0)
Stats Elevation 1,213 ft / 370 m (AMSL)
Location 43.157618° -93.331577°
Runways 2
Magnetic Variation 0.446° E

METAR

KMCW 131253Z AUTO 28018G26KT 10SM CLR 04/M04 A2936 RMK AO2 PK WND 29026/1248 SLP950 T00391044

Decode

TAF

KMCW 131134Z 1312/1412 26016KT P6SM SCT060 BKN250 FM131300 30020G30KT P6SM VCSH SCT040 BKN080 FM131500 32028G40KT P6SM VCSH BKN020 FM132300 33020G30KT P6SM BKN025 FM140200 34015KT P6SM BKN035 FM140900 31009KT P6SM BKN040

Decode

Departure Runways

ID Width Length Bearing (true) Bearing (mag) Surface Threshold Offset Overrun Length
12 150 ft / 46 m 5,495 ft / 1,675 m 125.03° 124.58° Asphalt 0 ft / 0 m 0 ft / 0 m
18 150 ft / 46 m 6,507 ft / 1,984 m 179.92° 179.47° Asphalt 0 ft / 0 m 0 ft / 0 m
30 150 ft / 46 m 5,495 ft / 1,675 m 305.04° 304.59° Asphalt 0 ft / 0 m 0 ft / 0 m
36 150 ft / 46 m 6,507 ft / 1,984 m 359.92° 359.47° Asphalt 0 ft / 0 m 0 ft / 0 m

KBDU

Details ICAO KBDU (WBU)
Name BOULDER MUNI
Region United States
Timezone America/Denver (UTC-7.0)
Stats Elevation 5,288 ft / 1,612 m (AMSL)
Location 40.038749° -105.227366°
Runways 2
Magnetic Variation 8.367° E

METAR

KBDU 131254Z AUTO 10005KT 10SM OVC120 08/M14 A3011 RMK AO2

Decode

TAF

Not found

Destination Runways

ID Width Length Bearing (true) Bearing (mag) Surface Threshold Offset Overrun Length
08L 25 ft / 8 m 4,121 ft / 1,256 m 92.83° 84.46° Dirt 200 ft / 61 m 0 ft / 0 m
08R 75 ft / 23 m 4,121 ft / 1,256 m 92.81° 84.44° Asphalt 200 ft / 61 m 0 ft / 0 m
26L 75 ft / 23 m 4,121 ft / 1,256 m 272.82° 264.45° Asphalt 200 ft / 61 m 0 ft / 0 m
26R 25 ft / 8 m 4,121 ft / 1,256 m 272.84° 264.47° Dirt 0 ft / 0 m 0 ft / 0 m

Popular Alternatives